<?xml version="1.0" encoding="UTF-8" standalone="no" ?>
<gpx xmlns="http://www.topografix.com/GPX/1/1" xmlns:xsi="http://www.w3.org/2001/XMLSchema-instance" xsi:schemaLocation="http://www.topografix.com/GPX/1/1 http://www.topografix.com/GPX/1/1/gpx.xsd" version="1.1" creator="VisuGPX - https://www.visugpx.com">
  <metadata>
    <name>14201887-PAT LANCE1</name>
  </metadata>
  <trk>
    <name><![CDATA[14201887-PAT LANCE1]]></name>
    <trkseg>
      <trkpt lat="44.47764" lon="5.02882">
        <ele>355</ele>
        <time>2022-01-31T13:30:11Z</time>
      </trkpt>
      <trkpt lat="44.47764" lon="5.02882">
        <ele>355</ele>
        <time>2022-01-31T13:30:11Z</time>
      </trkpt>
      <trkpt lat="44.47765" lon="5.02904">
        <ele>357</ele>
        <time>2022-01-31T13:30:32Z</time>
      </trkpt>
      <trkpt lat="44.47775" lon="5.02968">
        <ele>361</ele>
        <time>2022-01-31T13:31:34Z</time>
      </trkpt>
      <trkpt lat="44.47782" lon="5.03044">
        <ele>367</ele>
        <time>2022-01-31T13:32:47Z</time>
      </trkpt>
      <trkpt lat="44.47799" lon="5.03121">
        <ele>373</ele>
        <time>2022-01-31T13:34:04Z</time>
      </trkpt>
      <trkpt lat="44.47802" lon="5.03176">
        <ele>377</ele>
        <time>2022-01-31T13:34:57Z</time>
      </trkpt>
      <trkpt lat="44.47843" lon="5.0328">
        <ele>383</ele>
        <time>2022-01-31T13:36:50Z</time>
      </trkpt>
      <trkpt lat="44.47855" lon="5.03326">
        <ele>386</ele>
        <time>2022-01-31T13:37:36Z</time>
      </trkpt>
      <trkpt lat="44.47861" lon="5.03387">
        <ele>390</ele>
        <time>2022-01-31T13:38:35Z</time>
      </trkpt>
      <trkpt lat="44.47863" lon="5.03443">
        <ele>394</ele>
        <time>2022-01-31T13:39:28Z</time>
      </trkpt>
      <trkpt lat="44.47866" lon="5.03481">
        <ele>395</ele>
        <time>2022-01-31T13:40:05Z</time>
      </trkpt>
      <trkpt lat="44.47886" lon="5.03581">
        <ele>403</ele>
        <time>2022-01-31T13:41:44Z</time>
      </trkpt>
      <trkpt lat="44.47889" lon="5.03625">
        <ele>406</ele>
        <time>2022-01-31T13:42:26Z</time>
      </trkpt>
      <trkpt lat="44.47877" lon="5.03666">
        <ele>406</ele>
        <time>2022-01-31T13:43:08Z</time>
      </trkpt>
      <trkpt lat="44.47805" lon="5.03792">
        <ele>411</ele>
        <time>2022-01-31T13:45:42Z</time>
      </trkpt>
      <trkpt lat="44.47772" lon="5.03809">
        <ele>409</ele>
        <time>2022-01-31T13:46:29Z</time>
      </trkpt>
      <trkpt lat="44.4776" lon="5.03826">
        <ele>408</ele>
        <time>2022-01-31T13:46:51Z</time>
      </trkpt>
      <trkpt lat="44.47749" lon="5.03869">
        <ele>411</ele>
        <time>2022-01-31T13:47:35Z</time>
      </trkpt>
      <trkpt lat="44.47726" lon="5.03931">
        <ele>419</ele>
        <time>2022-01-31T13:48:41Z</time>
      </trkpt>
      <trkpt lat="44.47713" lon="5.04005">
        <ele>424</ele>
        <time>2022-01-31T13:49:54Z</time>
      </trkpt>
      <trkpt lat="44.47727" lon="5.04063">
        <ele>428</ele>
        <time>2022-01-31T13:50:52Z</time>
      </trkpt>
      <trkpt lat="44.47758" lon="5.04115">
        <ele>430</ele>
        <time>2022-01-31T13:51:57Z</time>
      </trkpt>
      <trkpt lat="44.47853" lon="5.04169">
        <ele>441</ele>
        <time>2022-01-31T13:54:14Z</time>
      </trkpt>
      <trkpt lat="44.47923" lon="5.04303">
        <ele>439</ele>
        <time>2022-01-31T13:56:52Z</time>
      </trkpt>
      <trkpt lat="44.47919" lon="5.04328">
        <ele>434</ele>
        <time>2022-01-31T13:57:16Z</time>
      </trkpt>
      <trkpt lat="44.47924" lon="5.04346">
        <ele>434</ele>
        <time>2022-01-31T13:57:34Z</time>
      </trkpt>
      <trkpt lat="44.47939" lon="5.04365">
        <ele>437</ele>
        <time>2022-01-31T13:58:01Z</time>
      </trkpt>
      <trkpt lat="44.47963" lon="5.04567">
        <ele>437</ele>
        <time>2022-01-31T14:01:16Z</time>
      </trkpt>
      <trkpt lat="44.47969" lon="5.04592">
        <ele>438</ele>
        <time>2022-01-31T14:01:42Z</time>
      </trkpt>
      <trkpt lat="44.47971" lon="5.04627">
        <ele>440</ele>
        <time>2022-01-31T14:02:15Z</time>
      </trkpt>
      <trkpt lat="44.47962" lon="5.04708">
        <ele>443</ele>
        <time>2022-01-31T14:03:33Z</time>
      </trkpt>
      <trkpt lat="44.47934" lon="5.04779">
        <ele>447</ele>
        <time>2022-01-31T14:04:50Z</time>
      </trkpt>
      <trkpt lat="44.47904" lon="5.04818">
        <ele>449</ele>
        <time>2022-01-31T14:05:45Z</time>
      </trkpt>
      <trkpt lat="44.47879" lon="5.04833">
        <ele>452</ele>
        <time>2022-01-31T14:06:21Z</time>
      </trkpt>
      <trkpt lat="44.47873" lon="5.04828">
        <ele>452</ele>
        <time>2022-01-31T14:06:31Z</time>
      </trkpt>
      <trkpt lat="44.47889" lon="5.04853">
        <ele>455</ele>
        <time>2022-01-31T14:07:02Z</time>
      </trkpt>
      <trkpt lat="44.4788" lon="5.0486">
        <ele>458</ele>
        <time>2022-01-31T14:07:16Z</time>
      </trkpt>
      <trkpt lat="44.47861" lon="5.04867">
        <ele>461</ele>
        <time>2022-01-31T14:07:42Z</time>
      </trkpt>
      <trkpt lat="44.47852" lon="5.04874">
        <ele>463</ele>
        <time>2022-01-31T14:07:56Z</time>
      </trkpt>
      <trkpt lat="44.47818" lon="5.04909">
        <ele>472</ele>
        <time>2022-01-31T14:08:52Z</time>
      </trkpt>
      <trkpt lat="44.47797" lon="5.04941">
        <ele>479</ele>
        <time>2022-01-31T14:09:34Z</time>
      </trkpt>
      <trkpt lat="44.47763" lon="5.04976">
        <ele>485</ele>
        <time>2022-01-31T14:10:30Z</time>
      </trkpt>
      <trkpt lat="44.47748" lon="5.04982">
        <ele>485</ele>
        <time>2022-01-31T14:10:51Z</time>
      </trkpt>
      <trkpt lat="44.47734" lon="5.04976">
        <ele>484</ele>
        <time>2022-01-31T14:11:11Z</time>
      </trkpt>
      <trkpt lat="44.47724" lon="5.04982">
        <ele>485</ele>
        <time>2022-01-31T14:11:25Z</time>
      </trkpt>
      <trkpt lat="44.47721" lon="5.04982">
        <ele>486</ele>
        <time>2022-01-31T14:11:29Z</time>
      </trkpt>
      <trkpt lat="44.47662" lon="5.05057">
        <ele>502</ele>
        <time>2022-01-31T14:13:15Z</time>
      </trkpt>
      <trkpt lat="44.47659" lon="5.05063">
        <ele>503</ele>
        <time>2022-01-31T14:13:22Z</time>
      </trkpt>
      <trkpt lat="44.47648" lon="5.05097">
        <ele>510</ele>
        <time>2022-01-31T14:13:58Z</time>
      </trkpt>
      <trkpt lat="44.47644" lon="5.05106">
        <ele>512</ele>
        <time>2022-01-31T14:14:08Z</time>
      </trkpt>
      <trkpt lat="44.47627" lon="5.05128">
        <ele>517</ele>
        <time>2022-01-31T14:14:39Z</time>
      </trkpt>
      <trkpt lat="44.47613" lon="5.05142">
        <ele>520</ele>
        <time>2022-01-31T14:15:02Z</time>
      </trkpt>
      <trkpt lat="44.47563" lon="5.05183">
        <ele>531</ele>
        <time>2022-01-31T14:16:19Z</time>
      </trkpt>
      <trkpt lat="44.47549" lon="5.05212">
        <ele>537</ele>
        <time>2022-01-31T14:16:52Z</time>
      </trkpt>
      <trkpt lat="44.4754" lon="5.05221">
        <ele>539</ele>
        <time>2022-01-31T14:17:07Z</time>
      </trkpt>
      <trkpt lat="44.47535" lon="5.05222">
        <ele>539</ele>
        <time>2022-01-31T14:17:14Z</time>
      </trkpt>
      <trkpt lat="44.47526" lon="5.05215">
        <ele>538</ele>
        <time>2022-01-31T14:17:28Z</time>
      </trkpt>
      <trkpt lat="44.47521" lon="5.05214">
        <ele>538</ele>
        <time>2022-01-31T14:17:34Z</time>
      </trkpt>
      <trkpt lat="44.47517" lon="5.05219">
        <ele>539</ele>
        <time>2022-01-31T14:17:42Z</time>
      </trkpt>
      <trkpt lat="44.47506" lon="5.05236">
        <ele>543</ele>
        <time>2022-01-31T14:18:03Z</time>
      </trkpt>
      <trkpt lat="44.47458" lon="5.0533">
        <ele>562</ele>
        <time>2022-01-31T14:19:53Z</time>
      </trkpt>
      <trkpt lat="44.47427" lon="5.05369">
        <ele>571</ele>
        <time>2022-01-31T14:20:49Z</time>
      </trkpt>
      <trkpt lat="44.47404" lon="5.05411">
        <ele>577</ele>
        <time>2022-01-31T14:21:39Z</time>
      </trkpt>
      <trkpt lat="44.47398" lon="5.05431">
        <ele>581</ele>
        <time>2022-01-31T14:22:00Z</time>
      </trkpt>
      <trkpt lat="44.47388" lon="5.05394">
        <ele>575</ele>
        <time>2022-01-31T14:22:38Z</time>
      </trkpt>
      <trkpt lat="44.47374" lon="5.05325">
        <ele>565</ele>
        <time>2022-01-31T14:23:46Z</time>
      </trkpt>
      <trkpt lat="44.47368" lon="5.05316">
        <ele>564</ele>
        <time>2022-01-31T14:23:58Z</time>
      </trkpt>
      <trkpt lat="44.47348" lon="5.05314">
        <ele>564</ele>
        <time>2022-01-31T14:24:25Z</time>
      </trkpt>
      <trkpt lat="44.47313" lon="5.05321">
        <ele>560</ele>
        <time>2022-01-31T14:25:12Z</time>
      </trkpt>
      <trkpt lat="44.47307" lon="5.0532">
        <ele>559</ele>
        <time>2022-01-31T14:25:20Z</time>
      </trkpt>
      <trkpt lat="44.47284" lon="5.05325">
        <ele>553</ele>
        <time>2022-01-31T14:25:51Z</time>
      </trkpt>
      <trkpt lat="44.47274" lon="5.05331">
        <ele>551</ele>
        <time>2022-01-31T14:26:05Z</time>
      </trkpt>
      <trkpt lat="44.47266" lon="5.05331">
        <ele>549</ele>
        <time>2022-01-31T14:26:16Z</time>
      </trkpt>
      <trkpt lat="44.47258" lon="5.05327">
        <ele>547</ele>
        <time>2022-01-31T14:26:27Z</time>
      </trkpt>
      <trkpt lat="44.47246" lon="5.05316">
        <ele>545</ele>
        <time>2022-01-31T14:26:47Z</time>
      </trkpt>
      <trkpt lat="44.47234" lon="5.0531">
        <ele>546</ele>
        <time>2022-01-31T14:27:04Z</time>
      </trkpt>
      <trkpt lat="44.47219" lon="5.05293">
        <ele>546</ele>
        <time>2022-01-31T14:27:29Z</time>
      </trkpt>
      <trkpt lat="44.47197" lon="5.05279">
        <ele>545</ele>
        <time>2022-01-31T14:28:02Z</time>
      </trkpt>
      <trkpt lat="44.47194" lon="5.05275">
        <ele>545</ele>
        <time>2022-01-31T14:28:07Z</time>
      </trkpt>
      <trkpt lat="44.47193" lon="5.05268">
        <ele>544</ele>
        <time>2022-01-31T14:28:14Z</time>
      </trkpt>
      <trkpt lat="44.47186" lon="5.05263">
        <ele>543</ele>
        <time>2022-01-31T14:28:24Z</time>
      </trkpt>
      <trkpt lat="44.47179" lon="5.05268">
        <ele>543</ele>
        <time>2022-01-31T14:28:35Z</time>
      </trkpt>
      <trkpt lat="44.47149" lon="5.05227">
        <ele>546</ele>
        <time>2022-01-31T14:29:31Z</time>
      </trkpt>
      <trkpt lat="44.47106" lon="5.05193">
        <ele>556</ele>
        <time>2022-01-31T14:30:37Z</time>
      </trkpt>
      <trkpt lat="44.47096" lon="5.05178">
        <ele>555</ele>
        <time>2022-01-31T14:30:56Z</time>
      </trkpt>
      <trkpt lat="44.47094" lon="5.05158">
        <ele>549</ele>
        <time>2022-01-31T14:31:15Z</time>
      </trkpt>
      <trkpt lat="44.47088" lon="5.05137">
        <ele>543</ele>
        <time>2022-01-31T14:31:37Z</time>
      </trkpt>
      <trkpt lat="44.47073" lon="5.05123">
        <ele>539</ele>
        <time>2022-01-31T14:32:01Z</time>
      </trkpt>
      <trkpt lat="44.47028" lon="5.05106">
        <ele>538</ele>
        <time>2022-01-31T14:33:03Z</time>
      </trkpt>
      <trkpt lat="44.47012" lon="5.05112">
        <ele>542</ele>
        <time>2022-01-31T14:33:25Z</time>
      </trkpt>
      <trkpt lat="44.46995" lon="5.05111">
        <ele>542</ele>
        <time>2022-01-31T14:33:48Z</time>
      </trkpt>
      <trkpt lat="44.46957" lon="5.05099">
        <ele>538</ele>
        <time>2022-01-31T14:34:40Z</time>
      </trkpt>
      <trkpt lat="44.46942" lon="5.05099">
        <ele>537</ele>
        <time>2022-01-31T14:35:00Z</time>
      </trkpt>
      <trkpt lat="44.46931" lon="5.05102">
        <ele>538</ele>
        <time>2022-01-31T14:35:15Z</time>
      </trkpt>
      <trkpt lat="44.4692" lon="5.05113">
        <ele>541</ele>
        <time>2022-01-31T14:35:33Z</time>
      </trkpt>
      <trkpt lat="44.4691" lon="5.05117">
        <ele>541</ele>
        <time>2022-01-31T14:35:47Z</time>
      </trkpt>
      <trkpt lat="44.46888" lon="5.05136">
        <ele>541</ele>
        <time>2022-01-31T14:36:21Z</time>
      </trkpt>
      <trkpt lat="44.4686" lon="5.05163">
        <ele>541</ele>
        <time>2022-01-31T14:37:07Z</time>
      </trkpt>
      <trkpt lat="44.46848" lon="5.05178">
        <ele>541</ele>
        <time>2022-01-31T14:37:28Z</time>
      </trkpt>
      <trkpt lat="44.46834" lon="5.05208">
        <ele>541</ele>
        <time>2022-01-31T14:38:02Z</time>
      </trkpt>
      <trkpt lat="44.46809" lon="5.05246">
        <ele>536</ele>
        <time>2022-01-31T14:38:52Z</time>
      </trkpt>
      <trkpt lat="44.46804" lon="5.05268">
        <ele>535</ele>
        <time>2022-01-31T14:39:14Z</time>
      </trkpt>
      <trkpt lat="44.46806" lon="5.05308">
        <ele>538</ele>
        <time>2022-01-31T14:39:52Z</time>
      </trkpt>
      <trkpt lat="44.46802" lon="5.05329">
        <ele>538</ele>
        <time>2022-01-31T14:40:12Z</time>
      </trkpt>
      <trkpt lat="44.46797" lon="5.05375">
        <ele>541</ele>
        <time>2022-01-31T14:40:57Z</time>
      </trkpt>
      <trkpt lat="44.46775" lon="5.05398">
        <ele>536</ele>
        <time>2022-01-31T14:41:33Z</time>
      </trkpt>
      <trkpt lat="44.46762" lon="5.05419">
        <ele>533</ele>
        <time>2022-01-31T14:42:00Z</time>
      </trkpt>
      <trkpt lat="44.46741" lon="5.05459">
        <ele>537</ele>
        <time>2022-01-31T14:42:47Z</time>
      </trkpt>
      <trkpt lat="44.467" lon="5.05516">
        <ele>541</ele>
        <time>2022-01-31T14:44:04Z</time>
      </trkpt>
      <trkpt lat="44.46681" lon="5.0556">
        <ele>545</ele>
        <time>2022-01-31T14:44:53Z</time>
      </trkpt>
      <trkpt lat="44.46653" lon="5.05613">
        <ele>550</ele>
        <time>2022-01-31T14:45:56Z</time>
      </trkpt>
      <trkpt lat="44.46619" lon="5.0564">
        <ele>552</ele>
        <time>2022-01-31T14:46:48Z</time>
      </trkpt>
      <trkpt lat="44.46611" lon="5.05649">
        <ele>552</ele>
        <time>2022-01-31T14:47:02Z</time>
      </trkpt>
      <trkpt lat="44.46586" lon="5.05662">
        <ele>550</ele>
        <time>2022-01-31T14:47:37Z</time>
      </trkpt>
      <trkpt lat="44.46569" lon="5.05691">
        <ele>555</ele>
        <time>2022-01-31T14:48:13Z</time>
      </trkpt>
      <trkpt lat="44.46558" lon="5.05706">
        <ele>558</ele>
        <time>2022-01-31T14:48:34Z</time>
      </trkpt>
      <trkpt lat="44.46536" lon="5.05727">
        <ele>561</ele>
        <time>2022-01-31T14:49:09Z</time>
      </trkpt>
      <trkpt lat="44.4652" lon="5.05753">
        <ele>563</ele>
        <time>2022-01-31T14:49:42Z</time>
      </trkpt>
      <trkpt lat="44.46502" lon="5.05769">
        <ele>564</ele>
        <time>2022-01-31T14:50:10Z</time>
      </trkpt>
      <trkpt lat="44.46495" lon="5.05765">
        <ele>563</ele>
        <time>2022-01-31T14:50:20Z</time>
      </trkpt>
      <trkpt lat="44.46502" lon="5.05769">
        <ele>564</ele>
        <time>2022-01-31T14:50:30Z</time>
      </trkpt>
      <trkpt lat="44.465" lon="5.05774">
        <ele>564</ele>
        <time>2022-01-31T14:50:36Z</time>
      </trkpt>
      <trkpt lat="44.465" lon="5.05786">
        <ele>565</ele>
        <time>2022-01-31T14:50:47Z</time>
      </trkpt>
      <trkpt lat="44.46512" lon="5.05798">
        <ele>566</ele>
        <time>2022-01-31T14:51:07Z</time>
      </trkpt>
      <trkpt lat="44.46528" lon="5.05818">
        <ele>569</ele>
        <time>2022-01-31T14:51:36Z</time>
      </trkpt>
      <trkpt lat="44.46545" lon="5.0582">
        <ele>570</ele>
        <time>2022-01-31T14:51:58Z</time>
      </trkpt>
      <trkpt lat="44.46551" lon="5.0583">
        <ele>572</ele>
        <time>2022-01-31T14:52:11Z</time>
      </trkpt>
      <trkpt lat="44.46575" lon="5.05891">
        <ele>586</ele>
        <time>2022-01-31T14:53:17Z</time>
      </trkpt>
      <trkpt lat="44.46581" lon="5.059">
        <ele>588</ele>
        <time>2022-01-31T14:53:29Z</time>
      </trkpt>
      <trkpt lat="44.46591" lon="5.05932">
        <ele>595</ele>
        <time>2022-01-31T14:54:02Z</time>
      </trkpt>
      <trkpt lat="44.46617" lon="5.0599">
        <ele>607</ele>
        <time>2022-01-31T14:55:07Z</time>
      </trkpt>
      <trkpt lat="44.46615" lon="5.06016">
        <ele>613</ele>
        <time>2022-01-31T14:55:32Z</time>
      </trkpt>
      <trkpt lat="44.46548" lon="5.0619">
        <ele>657</ele>
        <time>2022-01-31T14:58:41Z</time>
      </trkpt>
      <trkpt lat="44.46535" lon="5.06202">
        <ele>662</ele>
        <time>2022-01-31T14:59:01Z</time>
      </trkpt>
      <trkpt lat="44.46534" lon="5.06216">
        <ele>667</ele>
        <time>2022-01-31T14:59:15Z</time>
      </trkpt>
      <trkpt lat="44.46568" lon="5.0624">
        <ele>676</ele>
        <time>2022-01-31T15:00:06Z</time>
      </trkpt>
      <trkpt lat="44.46573" lon="5.06251">
        <ele>680</ele>
        <time>2022-01-31T15:00:18Z</time>
      </trkpt>
      <trkpt lat="44.46575" lon="5.06262">
        <ele>685</ele>
        <time>2022-01-31T15:00:29Z</time>
      </trkpt>
      <trkpt lat="44.46569" lon="5.0627">
        <ele>689</ele>
        <time>2022-01-31T15:00:40Z</time>
      </trkpt>
      <trkpt lat="44.46521" lon="5.06265">
        <ele>688</ele>
        <time>2022-01-31T15:01:44Z</time>
      </trkpt>
      <trkpt lat="44.46465" lon="5.06265">
        <ele>685</ele>
        <time>2022-01-31T15:02:59Z</time>
      </trkpt>
      <trkpt lat="44.46425" lon="5.0633">
        <ele>704</ele>
        <time>2022-01-31T15:04:21Z</time>
      </trkpt>
      <trkpt lat="44.4637" lon="5.06406">
        <ele>711</ele>
        <time>2022-01-31T15:06:04Z</time>
      </trkpt>
      <trkpt lat="44.46344" lon="5.06428">
        <ele>711</ele>
        <time>2022-01-31T15:06:44Z</time>
      </trkpt>
      <trkpt lat="44.46338" lon="5.06446">
        <ele>714</ele>
        <time>2022-01-31T15:07:03Z</time>
      </trkpt>
      <trkpt lat="44.46331" lon="5.06452">
        <ele>714</ele>
        <time>2022-01-31T15:07:14Z</time>
      </trkpt>
      <trkpt lat="44.4632" lon="5.06449">
        <ele>710</ele>
        <time>2022-01-31T15:07:29Z</time>
      </trkpt>
      <trkpt lat="44.46307" lon="5.06458">
        <ele>708</ele>
        <time>2022-01-31T15:07:48Z</time>
      </trkpt>
      <trkpt lat="44.46292" lon="5.06462">
        <ele>705</ele>
        <time>2022-01-31T15:08:09Z</time>
      </trkpt>
      <trkpt lat="44.46288" lon="5.06456">
        <ele>703</ele>
        <time>2022-01-31T15:08:17Z</time>
      </trkpt>
      <trkpt lat="44.46284" lon="5.06474">
        <ele>704</ele>
        <time>2022-01-31T15:08:35Z</time>
      </trkpt>
      <trkpt lat="44.46285" lon="5.06484">
        <ele>706</ele>
        <time>2022-01-31T15:08:44Z</time>
      </trkpt>
      <trkpt lat="44.46289" lon="5.06493">
        <ele>709</ele>
        <time>2022-01-31T15:08:54Z</time>
      </trkpt>
      <trkpt lat="44.46321" lon="5.06516">
        <ele>724</ele>
        <time>2022-01-31T15:09:42Z</time>
      </trkpt>
      <trkpt lat="44.46355" lon="5.06532">
        <ele>737</ele>
        <time>2022-01-31T15:10:30Z</time>
      </trkpt>
      <trkpt lat="44.46361" lon="5.06539">
        <ele>740</ele>
        <time>2022-01-31T15:10:41Z</time>
      </trkpt>
      <trkpt lat="44.46375" lon="5.06573">
        <ele>751</ele>
        <time>2022-01-31T15:11:18Z</time>
      </trkpt>
      <trkpt lat="44.46376" lon="5.06586">
        <ele>754</ele>
        <time>2022-01-31T15:11:30Z</time>
      </trkpt>
      <trkpt lat="44.46369" lon="5.06625">
        <ele>760</ele>
        <time>2022-01-31T15:12:09Z</time>
      </trkpt>
      <trkpt lat="44.46372" lon="5.06653">
        <ele>767</ele>
        <time>2022-01-31T15:12:36Z</time>
      </trkpt>
      <trkpt lat="44.46375" lon="5.0667">
        <ele>771</ele>
        <time>2022-01-31T15:12:52Z</time>
      </trkpt>
      <trkpt lat="44.46384" lon="5.06697">
        <ele>778</ele>
        <time>2022-01-31T15:13:21Z</time>
      </trkpt>
      <trkpt lat="44.46394" lon="5.06712">
        <ele>784</ele>
        <time>2022-01-31T15:13:40Z</time>
      </trkpt>
      <trkpt lat="44.46408" lon="5.06719">
        <ele>790</ele>
        <time>2022-01-31T15:14:00Z</time>
      </trkpt>
      <trkpt lat="44.46414" lon="5.06743">
        <ele>798</ele>
        <time>2022-01-31T15:14:24Z</time>
      </trkpt>
      <trkpt lat="44.4641" lon="5.06756">
        <ele>801</ele>
        <time>2022-01-31T15:14:38Z</time>
      </trkpt>
      <trkpt lat="44.464" lon="5.06771">
        <ele>802</ele>
        <time>2022-01-31T15:14:57Z</time>
      </trkpt>
      <trkpt lat="44.464" lon="5.06785">
        <ele>807</ele>
        <time>2022-01-31T15:15:11Z</time>
      </trkpt>
      <trkpt lat="44.46406" lon="5.06807">
        <ele>817</ele>
        <time>2022-01-31T15:15:33Z</time>
      </trkpt>
      <trkpt lat="44.464" lon="5.06816">
        <ele>818</ele>
        <time>2022-01-31T15:15:45Z</time>
      </trkpt>
      <trkpt lat="44.46401" lon="5.06829">
        <ele>823</ele>
        <time>2022-01-31T15:15:57Z</time>
      </trkpt>
      <trkpt lat="44.46404" lon="5.0684">
        <ele>827</ele>
        <time>2022-01-31T15:16:08Z</time>
      </trkpt>
      <trkpt lat="44.46404" lon="5.0686">
        <ele>834</ele>
        <time>2022-01-31T15:16:28Z</time>
      </trkpt>
      <trkpt lat="44.46402" lon="5.0687">
        <ele>837</ele>
        <time>2022-01-31T15:16:37Z</time>
      </trkpt>
      <trkpt lat="44.46388" lon="5.06894">
        <ele>842</ele>
        <time>2022-01-31T15:17:07Z</time>
      </trkpt>
      <trkpt lat="44.46376" lon="5.06902">
        <ele>842</ele>
        <time>2022-01-31T15:17:25Z</time>
      </trkpt>
      <trkpt lat="44.46363" lon="5.06918">
        <ele>845</ele>
        <time>2022-01-31T15:17:48Z</time>
      </trkpt>
      <trkpt lat="44.46348" lon="5.06967">
        <ele>852</ele>
        <time>2022-01-31T15:18:39Z</time>
      </trkpt>
      <trkpt lat="44.46354" lon="5.07006">
        <ele>861</ele>
        <time>2022-01-31T15:19:17Z</time>
      </trkpt>
      <trkpt lat="44.46359" lon="5.07063">
        <ele>872</ele>
        <time>2022-01-31T15:20:11Z</time>
      </trkpt>
      <trkpt lat="44.46357" lon="5.07082">
        <ele>874</ele>
        <time>2022-01-31T15:20:30Z</time>
      </trkpt>
      <trkpt lat="44.46358" lon="5.07137">
        <ele>884</ele>
        <time>2022-01-31T15:21:22Z</time>
      </trkpt>
      <trkpt lat="44.46372" lon="5.07183">
        <ele>894</ele>
        <time>2022-01-31T15:22:10Z</time>
      </trkpt>
      <trkpt lat="44.46385" lon="5.07245">
        <ele>906</ele>
        <time>2022-01-31T15:23:11Z</time>
      </trkpt>
      <trkpt lat="44.46383" lon="5.07276">
        <ele>914</ele>
        <time>2022-01-31T15:23:41Z</time>
      </trkpt>
      <trkpt lat="44.46384" lon="5.07301">
        <ele>920</ele>
        <time>2022-01-31T15:24:05Z</time>
      </trkpt>
      <trkpt lat="44.46392" lon="5.07339">
        <ele>929</ele>
        <time>2022-01-31T15:24:42Z</time>
      </trkpt>
      <trkpt lat="44.46404" lon="5.07366">
        <ele>935</ele>
        <time>2022-01-31T15:25:13Z</time>
      </trkpt>
      <trkpt lat="44.46424" lon="5.07369">
        <ele>935</ele>
        <time>2022-01-31T15:25:39Z</time>
      </trkpt>
      <trkpt lat="44.46456" lon="5.07399">
        <ele>946</ele>
        <time>2022-01-31T15:26:31Z</time>
      </trkpt>
      <trkpt lat="44.46481" lon="5.07412">
        <ele>950</ele>
        <time>2022-01-31T15:27:06Z</time>
      </trkpt>
      <trkpt lat="44.46491" lon="5.07449">
        <ele>959</ele>
        <time>2022-01-31T15:27:44Z</time>
      </trkpt>
      <trkpt lat="44.4649" lon="5.07463">
        <ele>962</ele>
        <time>2022-01-31T15:27:57Z</time>
      </trkpt>
      <trkpt lat="44.46512" lon="5.07509">
        <ele>974</ele>
        <time>2022-01-31T15:28:50Z</time>
      </trkpt>
      <trkpt lat="44.46524" lon="5.07511">
        <ele>976</ele>
        <time>2022-01-31T15:29:06Z</time>
      </trkpt>
      <trkpt lat="44.46549" lon="5.07502">
        <ele>978</ele>
        <time>2022-01-31T15:29:41Z</time>
      </trkpt>
      <trkpt lat="44.46592" lon="5.07466">
        <ele>980</ele>
        <time>2022-01-31T15:30:48Z</time>
      </trkpt>
      <trkpt lat="44.46605" lon="5.07442">
        <ele>980</ele>
        <time>2022-01-31T15:31:16Z</time>
      </trkpt>
      <trkpt lat="44.4661" lon="5.07426">
        <ele>979</ele>
        <time>2022-01-31T15:31:33Z</time>
      </trkpt>
      <trkpt lat="44.46624" lon="5.07406">
        <ele>981</ele>
        <time>2022-01-31T15:32:00Z</time>
      </trkpt>
      <trkpt lat="44.4664" lon="5.07365">
        <ele>982</ele>
        <time>2022-01-31T15:32:44Z</time>
      </trkpt>
      <trkpt lat="44.46655" lon="5.07358">
        <ele>986</ele>
        <time>2022-01-31T15:33:05Z</time>
      </trkpt>
      <trkpt lat="44.46662" lon="5.07362">
        <ele>989</ele>
        <time>2022-01-31T15:33:15Z</time>
      </trkpt>
      <trkpt lat="44.4667" lon="5.07372">
        <ele>993</ele>
        <time>2022-01-31T15:33:30Z</time>
      </trkpt>
      <trkpt lat="44.4669" lon="5.07362">
        <ele>997</ele>
        <time>2022-01-31T15:33:58Z</time>
      </trkpt>
      <trkpt lat="44.46693" lon="5.07352">
        <ele>996</ele>
        <time>2022-01-31T15:34:08Z</time>
      </trkpt>
      <trkpt lat="44.46695" lon="5.07335">
        <ele>994</ele>
        <time>2022-01-31T15:34:25Z</time>
      </trkpt>
      <trkpt lat="44.467" lon="5.07333">
        <ele>995</ele>
        <time>2022-01-31T15:34:32Z</time>
      </trkpt>
      <trkpt lat="44.46707" lon="5.0732">
        <ele>995</ele>
        <time>2022-01-31T15:34:47Z</time>
      </trkpt>
      <trkpt lat="44.46724" lon="5.07298">
        <ele>995</ele>
        <time>2022-01-31T15:35:18Z</time>
      </trkpt>
      <trkpt lat="44.46732" lon="5.07294">
        <ele>996</ele>
        <time>2022-01-31T15:35:29Z</time>
      </trkpt>
      <trkpt lat="44.46742" lon="5.07292">
        <ele>998</ele>
        <time>2022-01-31T15:35:43Z</time>
      </trkpt>
      <trkpt lat="44.4675" lon="5.07283">
        <ele>998</ele>
        <time>2022-01-31T15:35:57Z</time>
      </trkpt>
      <trkpt lat="44.46777" lon="5.07261">
        <ele>1000</ele>
        <time>2022-01-31T15:36:38Z</time>
      </trkpt>
      <trkpt lat="44.46795" lon="5.0722">
        <ele>997</ele>
        <time>2022-01-31T15:37:24Z</time>
      </trkpt>
      <trkpt lat="44.46807" lon="5.07207">
        <ele>997</ele>
        <time>2022-01-31T15:37:44Z</time>
      </trkpt>
      <trkpt lat="44.46811" lon="5.07208">
        <ele>998</ele>
        <time>2022-01-31T15:37:50Z</time>
      </trkpt>
      <trkpt lat="44.46807" lon="5.07231">
        <ele>1001</ele>
        <time>2022-01-31T15:38:12Z</time>
      </trkpt>
      <trkpt lat="44.46798" lon="5.07255">
        <ele>1003</ele>
        <time>2022-01-31T15:38:38Z</time>
      </trkpt>
      <trkpt lat="44.46796" lon="5.07294">
        <ele>1009</ele>
        <time>2022-01-31T15:39:15Z</time>
      </trkpt>
      <trkpt lat="44.46799" lon="5.07312">
        <ele>1013</ele>
        <time>2022-01-31T15:39:33Z</time>
      </trkpt>
      <trkpt lat="44.46766" lon="5.07365">
        <ele>1014</ele>
        <time>2022-01-31T15:40:40Z</time>
      </trkpt>
      <trkpt lat="44.46774" lon="5.07458">
        <ele>1030</ele>
        <time>2022-01-31T15:42:09Z</time>
      </trkpt>
      <trkpt lat="44.46772" lon="5.07551">
        <ele>1046</ele>
        <time>2022-01-31T15:43:38Z</time>
      </trkpt>
      <trkpt lat="44.46757" lon="5.07603">
        <ele>1054</ele>
        <time>2022-01-31T15:44:31Z</time>
      </trkpt>
      <trkpt lat="44.46756" lon="5.07637">
        <ele>1059</ele>
        <time>2022-01-31T15:45:04Z</time>
      </trkpt>
      <trkpt lat="44.46733" lon="5.0774">
        <ele>1071</ele>
        <time>2022-01-31T15:46:46Z</time>
      </trkpt>
      <trkpt lat="44.46735" lon="5.07786">
        <ele>1079</ele>
        <time>2022-01-31T15:47:30Z</time>
      </trkpt>
      <trkpt lat="44.46668" lon="5.07892">
        <ele>1088</ele>
        <time>2022-01-31T15:49:45Z</time>
      </trkpt>
      <trkpt lat="44.46599" lon="5.07968">
        <ele>1093</ele>
        <time>2022-01-31T15:51:42Z</time>
      </trkpt>
      <trkpt lat="44.46532" lon="5.07994">
        <ele>1095</ele>
        <time>2022-01-31T15:53:15Z</time>
      </trkpt>
      <trkpt lat="44.46503" lon="5.08">
        <ele>1095</ele>
        <time>2022-01-31T15:53:54Z</time>
      </trkpt>
      <trkpt lat="44.46474" lon="5.08038">
        <ele>1102</ele>
        <time>2022-01-31T15:54:47Z</time>
      </trkpt>
      <trkpt lat="44.46484" lon="5.08102">
        <ele>1115</ele>
        <time>2022-01-31T15:55:49Z</time>
      </trkpt>
      <trkpt lat="44.46513" lon="5.08126">
        <ele>1122</ele>
        <time>2022-01-31T15:56:34Z</time>
      </trkpt>
      <trkpt lat="44.46565" lon="5.08125">
        <ele>1127</ele>
        <time>2022-01-31T15:57:44Z</time>
      </trkpt>
      <trkpt lat="44.46571" lon="5.0813">
        <ele>1129</ele>
        <time>2022-01-31T15:57:53Z</time>
      </trkpt>
      <trkpt lat="44.46448" lon="5.08362">
        <ele>1156</ele>
        <time>2022-01-31T16:02:28Z</time>
      </trkpt>
      <trkpt lat="44.46546" lon="5.08701">
        <ele>1216</ele>
        <time>2022-01-31T16:08:17Z</time>
      </trkpt>
      <trkpt lat="44.46582" lon="5.0892">
        <ele>1244</ele>
        <time>2022-01-31T16:11:51Z</time>
      </trkpt>
      <trkpt lat="44.46414" lon="5.09358">
        <ele>1275</ele>
        <time>2022-01-31T16:19:44Z</time>
      </trkpt>
      <trkpt lat="44.46282" lon="5.09409">
        <ele>1277</ele>
        <time>2022-01-31T16:22:47Z</time>
      </trkpt>
      <trkpt lat="44.46224" lon="5.0965">
        <ele>1301</ele>
        <time>2022-01-31T16:26:49Z</time>
      </trkpt>
      <trkpt lat="44.46053" lon="5.09778">
        <ele>1308</ele>
        <time>2022-01-31T16:31:08Z</time>
      </trkpt>
      <trkpt lat="44.45808" lon="5.10066">
        <ele>1315</ele>
        <time>2022-01-31T16:38:15Z</time>
      </trkpt>
      <trkpt lat="44.45523" lon="5.10195">
        <ele>1302</ele>
        <time>2022-01-31T16:44:54Z</time>
      </trkpt>
      <trkpt lat="44.45422" lon="5.10208">
        <ele>1299</ele>
        <time>2022-01-31T16:47:10Z</time>
      </trkpt>
      <trkpt lat="44.45414" lon="5.10222">
        <ele>1294</ele>
        <time>2022-01-31T16:47:27Z</time>
      </trkpt>
      <trkpt lat="44.45419" lon="5.10227">
        <ele>1293</ele>
        <time>2022-01-31T16:47:35Z</time>
      </trkpt>
      <trkpt lat="44.45417" lon="5.1023">
        <ele>1293</ele>
        <time>2022-01-31T16:47:39Z</time>
      </trkpt>
      <trkpt lat="44.45421" lon="5.10237">
        <ele>1291</ele>
        <time>2022-01-31T16:47:48Z</time>
      </trkpt>
      <trkpt lat="44.45418" lon="5.10246">
        <ele>1288</ele>
        <time>2022-01-31T16:47:57Z</time>
      </trkpt>
      <trkpt lat="44.45423" lon="5.10257">
        <ele>1283</ele>
        <time>2022-01-31T16:48:09Z</time>
      </trkpt>
      <trkpt lat="44.45421" lon="5.10263">
        <ele>1279</ele>
        <time>2022-01-31T16:48:16Z</time>
      </trkpt>
      <trkpt lat="44.45426" lon="5.10267">
        <ele>1277</ele>
        <time>2022-01-31T16:48:23Z</time>
      </trkpt>
      <trkpt lat="44.45432" lon="5.10269">
        <ele>1275</ele>
        <time>2022-01-31T16:48:32Z</time>
      </trkpt>
      <trkpt lat="44.45434" lon="5.10278">
        <ele>1270</ele>
        <time>2022-01-31T16:48:41Z</time>
      </trkpt>
      <trkpt lat="44.45431" lon="5.10283">
        <ele>1267</ele>
        <time>2022-01-31T16:48:47Z</time>
      </trkpt>
      <trkpt lat="44.45439" lon="5.10298">
        <ele>1257</ele>
        <time>2022-01-31T16:49:05Z</time>
      </trkpt>
      <trkpt lat="44.45437" lon="5.10304">
        <ele>1253</ele>
        <time>2022-01-31T16:49:11Z</time>
      </trkpt>
      <trkpt lat="44.45434" lon="5.10304">
        <ele>1254</ele>
        <time>2022-01-31T16:49:15Z</time>
      </trkpt>
      <trkpt lat="44.45431" lon="5.1031">
        <ele>1250</ele>
        <time>2022-01-31T16:49:22Z</time>
      </trkpt>
      <trkpt lat="44.45433" lon="5.10312">
        <ele>1249</ele>
        <time>2022-01-31T16:49:25Z</time>
      </trkpt>
      <trkpt lat="44.4543" lon="5.10314">
        <ele>1248</ele>
        <time>2022-01-31T16:49:30Z</time>
      </trkpt>
      <trkpt lat="44.45432" lon="5.10319">
        <ele>1245</ele>
        <time>2022-01-31T16:49:35Z</time>
      </trkpt>
      <trkpt lat="44.45431" lon="5.10325">
        <ele>1241</ele>
        <time>2022-01-31T16:49:41Z</time>
      </trkpt>
      <trkpt lat="44.45426" lon="5.10328">
        <ele>1239</ele>
        <time>2022-01-31T16:49:48Z</time>
      </trkpt>
      <trkpt lat="44.45425" lon="5.10334">
        <ele>1236</ele>
        <time>2022-01-31T16:49:54Z</time>
      </trkpt>
      <trkpt lat="44.45416" lon="5.10338">
        <ele>1235</ele>
        <time>2022-01-31T16:50:07Z</time>
      </trkpt>
      <trkpt lat="44.45416" lon="5.10346">
        <ele>1231</ele>
        <time>2022-01-31T16:50:14Z</time>
      </trkpt>
      <trkpt lat="44.45411" lon="5.10346">
        <ele>1230</ele>
        <time>2022-01-31T16:50:21Z</time>
      </trkpt>
      <trkpt lat="44.45408" lon="5.10349">
        <ele>1228</ele>
        <time>2022-01-31T16:50:26Z</time>
      </trkpt>
      <trkpt lat="44.45411" lon="5.10356">
        <ele>1225</ele>
        <time>2022-01-31T16:50:34Z</time>
      </trkpt>
      <trkpt lat="44.45413" lon="5.10365">
        <ele>1221</ele>
        <time>2022-01-31T16:50:43Z</time>
      </trkpt>
      <trkpt lat="44.45406" lon="5.10366">
        <ele>1219</ele>
        <time>2022-01-31T16:50:52Z</time>
      </trkpt>
      <trkpt lat="44.45408" lon="5.10373">
        <ele>1216</ele>
        <time>2022-01-31T16:50:59Z</time>
      </trkpt>
      <trkpt lat="44.45404" lon="5.10377">
        <ele>1214</ele>
        <time>2022-01-31T16:51:06Z</time>
      </trkpt>
      <trkpt lat="44.45405" lon="5.10385">
        <ele>1210</ele>
        <time>2022-01-31T16:51:14Z</time>
      </trkpt>
      <trkpt lat="44.4541" lon="5.10395">
        <ele>1206</ele>
        <time>2022-01-31T16:51:25Z</time>
      </trkpt>
      <trkpt lat="44.45398" lon="5.10403">
        <ele>1201</ele>
        <time>2022-01-31T16:51:43Z</time>
      </trkpt>
      <trkpt lat="44.45402" lon="5.10411">
        <ele>1197</ele>
        <time>2022-01-31T16:51:52Z</time>
      </trkpt>
      <trkpt lat="44.45408" lon="5.10414">
        <ele>1196</ele>
        <time>2022-01-31T16:52:01Z</time>
      </trkpt>
      <trkpt lat="44.45413" lon="5.10424">
        <ele>1192</ele>
        <time>2022-01-31T16:52:12Z</time>
      </trkpt>
      <trkpt lat="44.45421" lon="5.10429">
        <ele>1190</ele>
        <time>2022-01-31T16:52:24Z</time>
      </trkpt>
      <trkpt lat="44.4543" lon="5.10447">
        <ele>1181</ele>
        <time>2022-01-31T16:52:45Z</time>
      </trkpt>
      <trkpt lat="44.45427" lon="5.10449">
        <ele>1180</ele>
        <time>2022-01-31T16:52:49Z</time>
      </trkpt>
      <trkpt lat="44.45424" lon="5.10459">
        <ele>1176</ele>
        <time>2022-01-31T16:53:00Z</time>
      </trkpt>
      <trkpt lat="44.45404" lon="5.10463">
        <ele>1174</ele>
        <time>2022-01-31T16:53:27Z</time>
      </trkpt>
      <trkpt lat="44.45399" lon="5.10465">
        <ele>1172</ele>
        <time>2022-01-31T16:53:34Z</time>
      </trkpt>
      <trkpt lat="44.45409" lon="5.10473">
        <ele>1170</ele>
        <time>2022-01-31T16:53:49Z</time>
      </trkpt>
      <trkpt lat="44.45421" lon="5.10493">
        <ele>1161</ele>
        <time>2022-01-31T16:54:14Z</time>
      </trkpt>
      <trkpt lat="44.45428" lon="5.10499">
        <ele>1158</ele>
        <time>2022-01-31T16:54:25Z</time>
      </trkpt>
      <trkpt lat="44.45434" lon="5.10518">
        <ele>1149</ele>
        <time>2022-01-31T16:54:45Z</time>
      </trkpt>
      <trkpt lat="44.45429" lon="5.10523">
        <ele>1147</ele>
        <time>2022-01-31T16:54:53Z</time>
      </trkpt>
      <trkpt lat="44.45416" lon="5.10527">
        <ele>1146</ele>
        <time>2022-01-31T16:55:11Z</time>
      </trkpt>
      <trkpt lat="44.45414" lon="5.10531">
        <ele>1144</ele>
        <time>2022-01-31T16:55:15Z</time>
      </trkpt>
      <trkpt lat="44.45439" lon="5.10555">
        <ele>1133</ele>
        <time>2022-01-31T16:55:56Z</time>
      </trkpt>
      <trkpt lat="44.45441" lon="5.1056">
        <ele>1131</ele>
        <time>2022-01-31T16:56:01Z</time>
      </trkpt>
      <trkpt lat="44.45434" lon="5.10564">
        <ele>1129</ele>
        <time>2022-01-31T16:56:11Z</time>
      </trkpt>
      <trkpt lat="44.45445" lon="5.10587">
        <ele>1119</ele>
        <time>2022-01-31T16:56:38Z</time>
      </trkpt>
      <trkpt lat="44.45455" lon="5.10624">
        <ele>1106</ele>
        <time>2022-01-31T16:57:15Z</time>
      </trkpt>
      <trkpt lat="44.45459" lon="5.10668">
        <ele>1091</ele>
        <time>2022-01-31T16:57:58Z</time>
      </trkpt>
      <trkpt lat="44.45466" lon="5.10678">
        <ele>1089</ele>
        <time>2022-01-31T16:58:11Z</time>
      </trkpt>
      <trkpt lat="44.45463" lon="5.10695">
        <ele>1085</ele>
        <time>2022-01-31T16:58:28Z</time>
      </trkpt>
      <trkpt lat="44.45467" lon="5.10705">
        <ele>1082</ele>
        <time>2022-01-31T16:58:39Z</time>
      </trkpt>
      <trkpt lat="44.45469" lon="5.10724">
        <ele>1078</ele>
        <time>2022-01-31T16:58:57Z</time>
      </trkpt>
      <trkpt lat="44.45473" lon="5.1073">
        <ele>1077</ele>
        <time>2022-01-31T16:59:05Z</time>
      </trkpt>
      <trkpt lat="44.45473" lon="5.10774">
        <ele>1066</ele>
        <time>2022-01-31T16:59:47Z</time>
      </trkpt>
      <trkpt lat="44.45468" lon="5.1078">
        <ele>1064</ele>
        <time>2022-01-31T16:59:55Z</time>
      </trkpt>
      <trkpt lat="44.45472" lon="5.10784">
        <ele>1063</ele>
        <time>2022-01-31T17:00:02Z</time>
      </trkpt>
      <trkpt lat="44.4546" lon="5.10792">
        <ele>1060</ele>
        <time>2022-01-31T17:00:20Z</time>
      </trkpt>
      <trkpt lat="44.45461" lon="5.10801">
        <ele>1057</ele>
        <time>2022-01-31T17:00:28Z</time>
      </trkpt>
      <trkpt lat="44.45459" lon="5.10813">
        <ele>1054</ele>
        <time>2022-01-31T17:00:40Z</time>
      </trkpt>
      <trkpt lat="44.45465" lon="5.10822">
        <ele>1052</ele>
        <time>2022-01-31T17:00:52Z</time>
      </trkpt>
      <trkpt lat="44.45475" lon="5.10829">
        <ele>1051</ele>
        <time>2022-01-31T17:01:07Z</time>
      </trkpt>
      <trkpt lat="44.45497" lon="5.10839">
        <ele>1050</ele>
        <time>2022-01-31T17:01:38Z</time>
      </trkpt>
      <trkpt lat="44.45488" lon="5.10846">
        <ele>1047</ele>
        <time>2022-01-31T17:01:51Z</time>
      </trkpt>
      <trkpt lat="44.45478" lon="5.1085">
        <ele>1044</ele>
        <time>2022-01-31T17:02:05Z</time>
      </trkpt>
      <trkpt lat="44.45459" lon="5.10851">
        <ele>1042</ele>
        <time>2022-01-31T17:02:31Z</time>
      </trkpt>
      <trkpt lat="44.45456" lon="5.10856">
        <ele>1040</ele>
        <time>2022-01-31T17:02:37Z</time>
      </trkpt>
      <trkpt lat="44.45465" lon="5.1086">
        <ele>1040</ele>
        <time>2022-01-31T17:02:49Z</time>
      </trkpt>
      <trkpt lat="44.45465" lon="5.10868">
        <ele>1037</ele>
        <time>2022-01-31T17:02:57Z</time>
      </trkpt>
      <trkpt lat="44.45478" lon="5.10883">
        <ele>1033</ele>
        <time>2022-01-31T17:03:19Z</time>
      </trkpt>
      <trkpt lat="44.45467" lon="5.10893">
        <ele>1029</ele>
        <time>2022-01-31T17:03:37Z</time>
      </trkpt>
      <trkpt lat="44.45497" lon="5.10911">
        <ele>1026</ele>
        <time>2022-01-31T17:04:21Z</time>
      </trkpt>
      <trkpt lat="44.4551" lon="5.10925">
        <ele>1020</ele>
        <time>2022-01-31T17:04:42Z</time>
      </trkpt>
      <trkpt lat="44.4551" lon="5.10935">
        <ele>1019</ele>
        <time>2022-01-31T17:04:52Z</time>
      </trkpt>
      <trkpt lat="44.45506" lon="5.10951">
        <ele>1018</ele>
        <time>2022-01-31T17:05:08Z</time>
      </trkpt>
      <trkpt lat="44.45509" lon="5.10967">
        <ele>1015</ele>
        <time>2022-01-31T17:05:24Z</time>
      </trkpt>
      <trkpt lat="44.45523" lon="5.1098">
        <ele>1010</ele>
        <time>2022-01-31T17:05:46Z</time>
      </trkpt>
      <trkpt lat="44.4552" lon="5.10995">
        <ele>1009</ele>
        <time>2022-01-31T17:06:01Z</time>
      </trkpt>
      <trkpt lat="44.45509" lon="5.11006">
        <ele>1010</ele>
        <time>2022-01-31T17:06:19Z</time>
      </trkpt>
      <trkpt lat="44.45498" lon="5.11024">
        <ele>1010</ele>
        <time>2022-01-31T17:06:42Z</time>
      </trkpt>
      <trkpt lat="44.45474" lon="5.11032">
        <ele>1006</ele>
        <time>2022-01-31T17:07:15Z</time>
      </trkpt>
      <trkpt lat="44.4547" lon="5.11046">
        <ele>1004</ele>
        <time>2022-01-31T17:07:29Z</time>
      </trkpt>
      <trkpt lat="44.45461" lon="5.11063">
        <ele>1002</ele>
        <time>2022-01-31T17:07:49Z</time>
      </trkpt>
      <trkpt lat="44.45455" lon="5.11068">
        <ele>1001</ele>
        <time>2022-01-31T17:07:58Z</time>
      </trkpt>
      <trkpt lat="44.45441" lon="5.11097">
        <ele>998</ele>
        <time>2022-01-31T17:08:32Z</time>
      </trkpt>
      <trkpt lat="44.45444" lon="5.11108">
        <ele>998</ele>
        <time>2022-01-31T17:08:43Z</time>
      </trkpt>
      <trkpt lat="44.45454" lon="5.11117">
        <ele>999</ele>
        <time>2022-01-31T17:08:59Z</time>
      </trkpt>
      <trkpt lat="44.45462" lon="5.1114">
        <ele>999</ele>
        <time>2022-01-31T17:09:23Z</time>
      </trkpt>
      <trkpt lat="44.45462" lon="5.11156">
        <ele>998</ele>
        <time>2022-01-31T17:09:38Z</time>
      </trkpt>
      <trkpt lat="44.45472" lon="5.11178">
        <ele>998</ele>
        <time>2022-01-31T17:10:03Z</time>
      </trkpt>
      <trkpt lat="44.45477" lon="5.11213">
        <ele>999</ele>
        <time>2022-01-31T17:10:37Z</time>
      </trkpt>
      <trkpt lat="44.45482" lon="5.11205">
        <ele>999</ele>
        <time>2022-01-31T17:10:47Z</time>
      </trkpt>
      <trkpt lat="44.45512" lon="5.11158">
        <ele>998</ele>
        <time>2022-01-31T17:11:48Z</time>
      </trkpt>
      <trkpt lat="44.45527" lon="5.11127">
        <ele>996</ele>
        <time>2022-01-31T17:12:23Z</time>
      </trkpt>
      <trkpt lat="44.45541" lon="5.11106">
        <ele>993</ele>
        <time>2022-01-31T17:12:51Z</time>
      </trkpt>
      <trkpt lat="44.456" lon="5.11057">
        <ele>981</ele>
        <time>2022-01-31T17:14:22Z</time>
      </trkpt>
      <trkpt lat="44.45614" lon="5.11036">
        <ele>977</ele>
        <time>2022-01-31T17:14:49Z</time>
      </trkpt>
      <trkpt lat="44.4562" lon="5.11024">
        <ele>976</ele>
        <time>2022-01-31T17:15:03Z</time>
      </trkpt>
      <trkpt lat="44.45635" lon="5.10978">
        <ele>973</ele>
        <time>2022-01-31T17:15:52Z</time>
      </trkpt>
      <trkpt lat="44.45638" lon="5.10919">
        <ele>977</ele>
        <time>2022-01-31T17:16:48Z</time>
      </trkpt>
      <trkpt lat="44.45641" lon="5.10912">
        <ele>977</ele>
        <time>2022-01-31T17:16:56Z</time>
      </trkpt>
      <trkpt lat="44.45646" lon="5.10911">
        <ele>975</ele>
        <time>2022-01-31T17:17:02Z</time>
      </trkpt>
      <trkpt lat="44.45666" lon="5.10931">
        <ele>964</ele>
        <time>2022-01-31T17:17:35Z</time>
      </trkpt>
      <trkpt lat="44.45674" lon="5.10924">
        <ele>964</ele>
        <time>2022-01-31T17:17:48Z</time>
      </trkpt>
      <trkpt lat="44.45685" lon="5.10901">
        <ele>969</ele>
        <time>2022-01-31T17:18:14Z</time>
      </trkpt>
      <trkpt lat="44.45693" lon="5.1089">
        <ele>972</ele>
        <time>2022-01-31T17:18:29Z</time>
      </trkpt>
      <trkpt lat="44.45701" lon="5.10883">
        <ele>974</ele>
        <time>2022-01-31T17:18:42Z</time>
      </trkpt>
      <trkpt lat="44.45707" lon="5.10882">
        <ele>974</ele>
        <time>2022-01-31T17:18:50Z</time>
      </trkpt>
      <trkpt lat="44.45711" lon="5.10882">
        <ele>975</ele>
        <time>2022-01-31T17:18:55Z</time>
      </trkpt>
      <trkpt lat="44.45716" lon="5.10885">
        <ele>974</ele>
        <time>2022-01-31T17:19:02Z</time>
      </trkpt>
      <trkpt lat="44.45719" lon="5.1089">
        <ele>973</ele>
        <time>2022-01-31T17:19:09Z</time>
      </trkpt>
      <trkpt lat="44.45722" lon="5.10904">
        <ele>970</ele>
        <time>2022-01-31T17:19:23Z</time>
      </trkpt>
      <trkpt lat="44.45722" lon="5.10949">
        <ele>960</ele>
        <time>2022-01-31T17:20:05Z</time>
      </trkpt>
      <trkpt lat="44.45724" lon="5.10963">
        <ele>957</ele>
        <time>2022-01-31T17:20:19Z</time>
      </trkpt>
      <trkpt lat="44.45725" lon="5.10983">
        <ele>953</ele>
        <time>2022-01-31T17:20:38Z</time>
      </trkpt>
      <trkpt lat="44.45728" lon="5.10996">
        <ele>951</ele>
        <time>2022-01-31T17:20:51Z</time>
      </trkpt>
      <trkpt lat="44.45727" lon="5.1101">
        <ele>948</ele>
        <time>2022-01-31T17:21:05Z</time>
      </trkpt>
      <trkpt lat="44.4573" lon="5.11023">
        <ele>946</ele>
        <time>2022-01-31T17:21:18Z</time>
      </trkpt>
      <trkpt lat="44.45729" lon="5.1103">
        <ele>944</ele>
        <time>2022-01-31T17:21:24Z</time>
      </trkpt>
      <trkpt lat="44.45729" lon="5.11037">
        <ele>943</ele>
        <time>2022-01-31T17:21:31Z</time>
      </trkpt>
      <trkpt lat="44.45733" lon="5.11048">
        <ele>941</ele>
        <time>2022-01-31T17:21:43Z</time>
      </trkpt>
      <trkpt lat="44.4573" lon="5.11061">
        <ele>939</ele>
        <time>2022-01-31T17:21:56Z</time>
      </trkpt>
      <trkpt lat="44.45731" lon="5.11068">
        <ele>937</ele>
        <time>2022-01-31T17:22:03Z</time>
      </trkpt>
      <trkpt lat="44.45739" lon="5.11092">
        <ele>931</ele>
        <time>2022-01-31T17:22:28Z</time>
      </trkpt>
      <trkpt lat="44.45744" lon="5.11126">
        <ele>922</ele>
        <time>2022-01-31T17:23:01Z</time>
      </trkpt>
      <trkpt lat="44.45755" lon="5.11165">
        <ele>912</ele>
        <time>2022-01-31T17:23:41Z</time>
      </trkpt>
      <trkpt lat="44.45764" lon="5.11173">
        <ele>912</ele>
        <time>2022-01-31T17:23:55Z</time>
      </trkpt>
      <trkpt lat="44.45769" lon="5.11185">
        <ele>910</ele>
        <time>2022-01-31T17:24:08Z</time>
      </trkpt>
      <trkpt lat="44.45767" lon="5.11221">
        <ele>901</ele>
        <time>2022-01-31T17:24:43Z</time>
      </trkpt>
      <trkpt lat="44.45769" lon="5.11228">
        <ele>899</ele>
        <time>2022-01-31T17:24:50Z</time>
      </trkpt>
      <trkpt lat="44.45798" lon="5.11279">
        <ele>887</ele>
        <time>2022-01-31T17:25:52Z</time>
      </trkpt>
      <trkpt lat="44.45813" lon="5.11297">
        <ele>882</ele>
        <time>2022-01-31T17:26:18Z</time>
      </trkpt>
      <trkpt lat="44.45814" lon="5.11325">
        <ele>876</ele>
        <time>2022-01-31T17:26:45Z</time>
      </trkpt>
      <trkpt lat="44.45819" lon="5.11337">
        <ele>873</ele>
        <time>2022-01-31T17:26:58Z</time>
      </trkpt>
      <trkpt lat="44.45826" lon="5.11346">
        <ele>870</ele>
        <time>2022-01-31T17:27:11Z</time>
      </trkpt>
      <trkpt lat="44.4584" lon="5.11376">
        <ele>862</ele>
        <time>2022-01-31T17:27:45Z</time>
      </trkpt>
      <trkpt lat="44.45861" lon="5.11393">
        <ele>859</ele>
        <time>2022-01-31T17:28:17Z</time>
      </trkpt>
      <trkpt lat="44.45871" lon="5.11407">
        <ele>855</ele>
        <time>2022-01-31T17:28:36Z</time>
      </trkpt>
      <trkpt lat="44.45885" lon="5.11444">
        <ele>849</ele>
        <time>2022-01-31T17:29:16Z</time>
      </trkpt>
      <trkpt lat="44.45886" lon="5.11464">
        <ele>846</ele>
        <time>2022-01-31T17:29:35Z</time>
      </trkpt>
      <trkpt lat="44.45893" lon="5.11483">
        <ele>842</ele>
        <time>2022-01-31T17:29:56Z</time>
      </trkpt>
      <trkpt lat="44.45894" lon="5.1149">
        <ele>841</ele>
        <time>2022-01-31T17:30:02Z</time>
      </trkpt>
      <trkpt lat="44.45893" lon="5.11518">
        <ele>837</ele>
        <time>2022-01-31T17:30:29Z</time>
      </trkpt>
      <trkpt lat="44.45903" lon="5.11566">
        <ele>831</ele>
        <time>2022-01-31T17:31:17Z</time>
      </trkpt>
      <trkpt lat="44.45901" lon="5.11623">
        <ele>823</ele>
        <time>2022-01-31T17:32:11Z</time>
      </trkpt>
      <trkpt lat="44.459" lon="5.1163">
        <ele>822</ele>
        <time>2022-01-31T17:32:18Z</time>
      </trkpt>
      <trkpt lat="44.45897" lon="5.11636">
        <ele>822</ele>
        <time>2022-01-31T17:32:25Z</time>
      </trkpt>
      <trkpt lat="44.45887" lon="5.11634">
        <ele>822</ele>
        <time>2022-01-31T17:32:38Z</time>
      </trkpt>
      <trkpt lat="44.45882" lon="5.11635">
        <ele>822</ele>
        <time>2022-01-31T17:32:45Z</time>
      </trkpt>
      <trkpt lat="44.45877" lon="5.11638">
        <ele>821</ele>
        <time>2022-01-31T17:32:52Z</time>
      </trkpt>
      <trkpt lat="44.45874" lon="5.11643">
        <ele>821</ele>
        <time>2022-01-31T17:32:59Z</time>
      </trkpt>
      <trkpt lat="44.45867" lon="5.11662">
        <ele>818</ele>
        <time>2022-01-31T17:33:19Z</time>
      </trkpt>
      <trkpt lat="44.45877" lon="5.11695">
        <ele>814</ele>
        <time>2022-01-31T17:33:53Z</time>
      </trkpt>
      <trkpt lat="44.45886" lon="5.11748">
        <ele>806</ele>
        <time>2022-01-31T17:34:45Z</time>
      </trkpt>
      <trkpt lat="44.4589" lon="5.11792">
        <ele>799</ele>
        <time>2022-01-31T17:35:27Z</time>
      </trkpt>
      <trkpt lat="44.45891" lon="5.11812">
        <ele>795</ele>
        <time>2022-01-31T17:35:46Z</time>
      </trkpt>
      <trkpt lat="44.45911" lon="5.11861">
        <ele>783</ele>
        <time>2022-01-31T17:36:40Z</time>
      </trkpt>
      <trkpt lat="44.45921" lon="5.11878">
        <ele>778</ele>
        <time>2022-01-31T17:37:01Z</time>
      </trkpt>
      <trkpt lat="44.45928" lon="5.11905">
        <ele>772</ele>
        <time>2022-01-31T17:37:28Z</time>
      </trkpt>
      <trkpt lat="44.4595" lon="5.11935">
        <ele>766</ele>
        <time>2022-01-31T17:38:09Z</time>
      </trkpt>
      <trkpt lat="44.45959" lon="5.11959">
        <ele>763</ele>
        <time>2022-01-31T17:38:35Z</time>
      </trkpt>
      <trkpt lat="44.45963" lon="5.11962">
        <ele>762</ele>
        <time>2022-01-31T17:38:41Z</time>
      </trkpt>
      <trkpt lat="44.45968" lon="5.11962">
        <ele>760</ele>
        <time>2022-01-31T17:38:48Z</time>
      </trkpt>
      <trkpt lat="44.4598" lon="5.11974">
        <ele>756</ele>
        <time>2022-01-31T17:39:08Z</time>
      </trkpt>
      <trkpt lat="44.45992" lon="5.11979">
        <ele>752</ele>
        <time>2022-01-31T17:39:24Z</time>
      </trkpt>
      <trkpt lat="44.45997" lon="5.11977">
        <ele>751</ele>
        <time>2022-01-31T17:39:31Z</time>
      </trkpt>
      <trkpt lat="44.46007" lon="5.11976">
        <ele>750</ele>
        <time>2022-01-31T17:39:45Z</time>
      </trkpt>
      <trkpt lat="44.46012" lon="5.11978">
        <ele>749</ele>
        <time>2022-01-31T17:39:52Z</time>
      </trkpt>
      <trkpt lat="44.46038" lon="5.12003">
        <ele>741</ele>
        <time>2022-01-31T17:40:34Z</time>
      </trkpt>
      <trkpt lat="44.46064" lon="5.12014">
        <ele>736</ele>
        <time>2022-01-31T17:41:10Z</time>
      </trkpt>
      <trkpt lat="44.4609" lon="5.12029">
        <ele>730</ele>
        <time>2022-01-31T17:41:47Z</time>
      </trkpt>
      <trkpt lat="44.46123" lon="5.12041">
        <ele>724</ele>
        <time>2022-01-31T17:42:33Z</time>
      </trkpt>
      <trkpt lat="44.4615" lon="5.1204">
        <ele>721</ele>
        <time>2022-01-31T17:43:09Z</time>
      </trkpt>
      <trkpt lat="44.46141" lon="5.12046">
        <ele>721</ele>
        <time>2022-01-31T17:43:22Z</time>
      </trkpt>
      <trkpt lat="44.4615" lon="5.1204">
        <ele>721</ele>
        <time>2022-01-31T17:43:36Z</time>
      </trkpt>
      <trkpt lat="44.46159" lon="5.12034">
        <ele>720</ele>
        <time>2022-01-31T17:43:49Z</time>
      </trkpt>
      <trkpt lat="44.46168" lon="5.12033">
        <ele>719</ele>
        <time>2022-01-31T17:44:01Z</time>
      </trkpt>
      <trkpt lat="44.46176" lon="5.12022">
        <ele>720</ele>
        <time>2022-01-31T17:44:16Z</time>
      </trkpt>
      <trkpt lat="44.46205" lon="5.12019">
        <ele>720</ele>
        <time>2022-01-31T17:44:55Z</time>
      </trkpt>
      <trkpt lat="44.46222" lon="5.12014">
        <ele>721</ele>
        <time>2022-01-31T17:45:18Z</time>
      </trkpt>
      <trkpt lat="44.46245" lon="5.12011">
        <ele>722</ele>
        <time>2022-01-31T17:45:49Z</time>
      </trkpt>
      <trkpt lat="44.46275" lon="5.12033">
        <ele>720</ele>
        <time>2022-01-31T17:46:34Z</time>
      </trkpt>
      <trkpt lat="44.4631" lon="5.1204">
        <ele>722</ele>
        <time>2022-01-31T17:47:21Z</time>
      </trkpt>
      <trkpt lat="44.46327" lon="5.12036">
        <ele>724</ele>
        <time>2022-01-31T17:47:44Z</time>
      </trkpt>
      <trkpt lat="44.46336" lon="5.12011">
        <ele>728</ele>
        <time>2022-01-31T17:48:11Z</time>
      </trkpt>
      <trkpt lat="44.46342" lon="5.11973">
        <ele>731</ele>
        <time>2022-01-31T17:48:48Z</time>
      </trkpt>
      <trkpt lat="44.46345" lon="5.11938">
        <ele>733</ele>
        <time>2022-01-31T17:49:21Z</time>
      </trkpt>
      <trkpt lat="44.46359" lon="5.11906">
        <ele>732</ele>
        <time>2022-01-31T17:49:57Z</time>
      </trkpt>
      <trkpt lat="44.46361" lon="5.11865">
        <ele>733</ele>
        <time>2022-01-31T17:50:36Z</time>
      </trkpt>
      <trkpt lat="44.46357" lon="5.11817">
        <ele>736</ele>
        <time>2022-01-31T17:51:22Z</time>
      </trkpt>
      <trkpt lat="44.46357" lon="5.1178">
        <ele>737</ele>
        <time>2022-01-31T17:51:58Z</time>
      </trkpt>
      <trkpt lat="44.46379" lon="5.11738">
        <ele>735</ele>
        <time>2022-01-31T17:52:47Z</time>
      </trkpt>
      <trkpt lat="44.4639" lon="5.11729">
        <ele>734</ele>
        <time>2022-01-31T17:53:04Z</time>
      </trkpt>
      <trkpt lat="44.46384" lon="5.1166">
        <ele>743</ele>
        <time>2022-01-31T17:54:10Z</time>
      </trkpt>
      <trkpt lat="44.46374" lon="5.11629">
        <ele>748</ele>
        <time>2022-01-31T17:54:43Z</time>
      </trkpt>
      <trkpt lat="44.46362" lon="5.11577">
        <ele>756</ele>
        <time>2022-01-31T17:55:35Z</time>
      </trkpt>
      <trkpt lat="44.46358" lon="5.1154">
        <ele>762</ele>
        <time>2022-01-31T17:56:10Z</time>
      </trkpt>
      <trkpt lat="44.46361" lon="5.11507">
        <ele>766</ele>
        <time>2022-01-31T17:56:42Z</time>
      </trkpt>
      <trkpt lat="44.46361" lon="5.11475">
        <ele>772</ele>
        <time>2022-01-31T17:57:13Z</time>
      </trkpt>
      <trkpt lat="44.4637" lon="5.11454">
        <ele>775</ele>
        <time>2022-01-31T17:57:36Z</time>
      </trkpt>
      <trkpt lat="44.46373" lon="5.1143">
        <ele>780</ele>
        <time>2022-01-31T17:57:59Z</time>
      </trkpt>
      <trkpt lat="44.46375" lon="5.11404">
        <ele>784</ele>
        <time>2022-01-31T17:58:24Z</time>
      </trkpt>
      <trkpt lat="44.46374" lon="5.11371">
        <ele>789</ele>
        <time>2022-01-31T17:58:56Z</time>
      </trkpt>
      <trkpt lat="44.46386" lon="5.11327">
        <ele>795</ele>
        <time>2022-01-31T17:59:40Z</time>
      </trkpt>
      <trkpt lat="44.46384" lon="5.1131">
        <ele>799</ele>
        <time>2022-01-31T17:59:57Z</time>
      </trkpt>
      <trkpt lat="44.46368" lon="5.11283">
        <ele>806</ele>
        <time>2022-01-31T18:00:30Z</time>
      </trkpt>
      <trkpt lat="44.4637" lon="5.11262">
        <ele>810</ele>
        <time>2022-01-31T18:00:50Z</time>
      </trkpt>
      <trkpt lat="44.46374" lon="5.11243">
        <ele>814</ele>
        <time>2022-01-31T18:01:09Z</time>
      </trkpt>
      <trkpt lat="44.46371" lon="5.11215">
        <ele>817</ele>
        <time>2022-01-31T18:01:36Z</time>
      </trkpt>
      <trkpt lat="44.46365" lon="5.11188">
        <ele>822</ele>
        <time>2022-01-31T18:02:03Z</time>
      </trkpt>
      <trkpt lat="44.46361" lon="5.11159">
        <ele>826</ele>
        <time>2022-01-31T18:02:31Z</time>
      </trkpt>
      <trkpt lat="44.46362" lon="5.11169">
        <ele>825</ele>
        <time>2022-01-31T18:02:41Z</time>
      </trkpt>
      <trkpt lat="44.4639" lon="5.11147">
        <ele>823</ele>
        <time>2022-01-31T18:03:24Z</time>
      </trkpt>
      <trkpt lat="44.46408" lon="5.11139">
        <ele>820</ele>
        <time>2022-01-31T18:03:49Z</time>
      </trkpt>
      <trkpt lat="44.4646" lon="5.11104">
        <ele>815</ele>
        <time>2022-01-31T18:05:06Z</time>
      </trkpt>
      <trkpt lat="44.46475" lon="5.11091">
        <ele>813</ele>
        <time>2022-01-31T18:05:29Z</time>
      </trkpt>
      <trkpt lat="44.46478" lon="5.11083">
        <ele>814</ele>
        <time>2022-01-31T18:05:38Z</time>
      </trkpt>
      <trkpt lat="44.46492" lon="5.1107">
        <ele>814</ele>
        <time>2022-01-31T18:06:00Z</time>
      </trkpt>
      <trkpt lat="44.46502" lon="5.11063">
        <ele>814</ele>
        <time>2022-01-31T18:06:15Z</time>
      </trkpt>
      <trkpt lat="44.46556" lon="5.11054">
        <ele>812</ele>
        <time>2022-01-31T18:07:28Z</time>
      </trkpt>
      <trkpt lat="44.46574" lon="5.11044">
        <ele>813</ele>
        <time>2022-01-31T18:07:54Z</time>
      </trkpt>
      <trkpt lat="44.46617" lon="5.11036">
        <ele>813</ele>
        <time>2022-01-31T18:08:52Z</time>
      </trkpt>
      <trkpt lat="44.46657" lon="5.11016">
        <ele>817</ele>
        <time>2022-01-31T18:09:48Z</time>
      </trkpt>
      <trkpt lat="44.46664" lon="5.11007">
        <ele>818</ele>
        <time>2022-01-31T18:10:01Z</time>
      </trkpt>
      <trkpt lat="44.4669" lon="5.1098">
        <ele>824</ele>
        <time>2022-01-31T18:10:44Z</time>
      </trkpt>
      <trkpt lat="44.46703" lon="5.10962">
        <ele>829</ele>
        <time>2022-01-31T18:11:09Z</time>
      </trkpt>
      <trkpt lat="44.46722" lon="5.10959">
        <ele>828</ele>
        <time>2022-01-31T18:11:34Z</time>
      </trkpt>
      <trkpt lat="44.46732" lon="5.10955">
        <ele>828</ele>
        <time>2022-01-31T18:11:48Z</time>
      </trkpt>
      <trkpt lat="44.46758" lon="5.10929">
        <ele>833</ele>
        <time>2022-01-31T18:12:31Z</time>
      </trkpt>
      <trkpt lat="44.46814" lon="5.10883">
        <ele>832</ele>
        <time>2022-01-31T18:13:57Z</time>
      </trkpt>
      <trkpt lat="44.46825" lon="5.10863">
        <ele>833</ele>
        <time>2022-01-31T18:14:21Z</time>
      </trkpt>
      <trkpt lat="44.46842" lon="5.1084">
        <ele>835</ele>
        <time>2022-01-31T18:14:53Z</time>
      </trkpt>
      <trkpt lat="44.46892" lon="5.10787">
        <ele>835</ele>
        <time>2022-01-31T18:16:17Z</time>
      </trkpt>
      <trkpt lat="44.469" lon="5.10773">
        <ele>835</ele>
        <time>2022-01-31T18:16:34Z</time>
      </trkpt>
      <trkpt lat="44.46909" lon="5.10736">
        <ele>835</ele>
        <time>2022-01-31T18:17:11Z</time>
      </trkpt>
      <trkpt lat="44.4692" lon="5.10732">
        <ele>832</ele>
        <time>2022-01-31T18:17:26Z</time>
      </trkpt>
      <trkpt lat="44.46941" lon="5.10738">
        <ele>825</ele>
        <time>2022-01-31T18:17:55Z</time>
      </trkpt>
      <trkpt lat="44.46947" lon="5.10731">
        <ele>823</ele>
        <time>2022-01-31T18:18:05Z</time>
      </trkpt>
      <trkpt lat="44.46947" lon="5.10711">
        <ele>822</ele>
        <time>2022-01-31T18:18:24Z</time>
      </trkpt>
      <trkpt lat="44.46936" lon="5.10666">
        <ele>825</ele>
        <time>2022-01-31T18:19:09Z</time>
      </trkpt>
      <trkpt lat="44.46939" lon="5.1065">
        <ele>826</ele>
        <time>2022-01-31T18:19:25Z</time>
      </trkpt>
      <trkpt lat="44.46947" lon="5.10626">
        <ele>825</ele>
        <time>2022-01-31T18:19:50Z</time>
      </trkpt>
      <trkpt lat="44.46962" lon="5.10594">
        <ele>822</ele>
        <time>2022-01-31T18:20:27Z</time>
      </trkpt>
      <trkpt lat="44.46972" lon="5.10559">
        <ele>825</ele>
        <time>2022-01-31T18:21:03Z</time>
      </trkpt>
      <trkpt lat="44.4698" lon="5.1055">
        <ele>824</ele>
        <time>2022-01-31T18:21:16Z</time>
      </trkpt>
      <trkpt lat="44.46985" lon="5.10535">
        <ele>826</ele>
        <time>2022-01-31T18:21:32Z</time>
      </trkpt>
      <trkpt lat="44.46985" lon="5.10521">
        <ele>829</ele>
        <time>2022-01-31T18:21:45Z</time>
      </trkpt>
      <trkpt lat="44.46981" lon="5.10508">
        <ele>834</ele>
        <time>2022-01-31T18:21:59Z</time>
      </trkpt>
      <trkpt lat="44.46981" lon="5.10495">
        <ele>837</ele>
        <time>2022-01-31T18:22:11Z</time>
      </trkpt>
      <trkpt lat="44.47" lon="5.10494">
        <ele>830</ele>
        <time>2022-01-31T18:22:37Z</time>
      </trkpt>
      <trkpt lat="44.4701" lon="5.10489">
        <ele>831</ele>
        <time>2022-01-31T18:22:51Z</time>
      </trkpt>
      <trkpt lat="44.47028" lon="5.10475">
        <ele>835</ele>
        <time>2022-01-31T18:23:18Z</time>
      </trkpt>
      <trkpt lat="44.47047" lon="5.10472">
        <ele>834</ele>
        <time>2022-01-31T18:23:44Z</time>
      </trkpt>
      <trkpt lat="44.47057" lon="5.10468">
        <ele>835</ele>
        <time>2022-01-31T18:23:58Z</time>
      </trkpt>
      <trkpt lat="44.47077" lon="5.10455">
        <ele>836</ele>
        <time>2022-01-31T18:24:27Z</time>
      </trkpt>
      <trkpt lat="44.47085" lon="5.10447">
        <ele>837</ele>
        <time>2022-01-31T18:24:40Z</time>
      </trkpt>
      <trkpt lat="44.47103" lon="5.10415">
        <ele>840</ele>
        <time>2022-01-31T18:25:19Z</time>
      </trkpt>
      <trkpt lat="44.47113" lon="5.10391">
        <ele>841</ele>
        <time>2022-01-31T18:25:46Z</time>
      </trkpt>
      <trkpt lat="44.47125" lon="5.10335">
        <ele>846</ele>
        <time>2022-01-31T18:26:41Z</time>
      </trkpt>
      <trkpt lat="44.47126" lon="5.10321">
        <ele>848</ele>
        <time>2022-01-31T18:26:55Z</time>
      </trkpt>
      <trkpt lat="44.47144" lon="5.1027">
        <ele>851</ele>
        <time>2022-01-31T18:27:49Z</time>
      </trkpt>
      <trkpt lat="44.47153" lon="5.10263">
        <ele>850</ele>
        <time>2022-01-31T18:28:03Z</time>
      </trkpt>
      <trkpt lat="44.47173" lon="5.10257">
        <ele>845</ele>
        <time>2022-01-31T18:28:30Z</time>
      </trkpt>
      <trkpt lat="44.47181" lon="5.1025">
        <ele>843</ele>
        <time>2022-01-31T18:28:42Z</time>
      </trkpt>
      <trkpt lat="44.47191" lon="5.10225">
        <ele>842</ele>
        <time>2022-01-31T18:29:10Z</time>
      </trkpt>
      <trkpt lat="44.47191" lon="5.10182">
        <ele>849</ele>
        <time>2022-01-31T18:29:51Z</time>
      </trkpt>
      <trkpt lat="44.47195" lon="5.10169">
        <ele>849</ele>
        <time>2022-01-31T18:30:04Z</time>
      </trkpt>
      <trkpt lat="44.47202" lon="5.10159">
        <ele>849</ele>
        <time>2022-01-31T18:30:17Z</time>
      </trkpt>
      <trkpt lat="44.47211" lon="5.10151">
        <ele>849</ele>
        <time>2022-01-31T18:30:32Z</time>
      </trkpt>
      <trkpt lat="44.4723" lon="5.10149">
        <ele>844</ele>
        <time>2022-01-31T18:30:57Z</time>
      </trkpt>
      <trkpt lat="44.47272" lon="5.1017">
        <ele>833</ele>
        <time>2022-01-31T18:31:57Z</time>
      </trkpt>
      <trkpt lat="44.47282" lon="5.10178">
        <ele>831</ele>
        <time>2022-01-31T18:32:12Z</time>
      </trkpt>
      <trkpt lat="44.47301" lon="5.10187">
        <ele>828</ele>
        <time>2022-01-31T18:32:39Z</time>
      </trkpt>
      <trkpt lat="44.4739" lon="5.10212">
        <ele>814</ele>
        <time>2022-01-31T18:34:40Z</time>
      </trkpt>
      <trkpt lat="44.4742" lon="5.10208">
        <ele>811</ele>
        <time>2022-01-31T18:35:20Z</time>
      </trkpt>
      <trkpt lat="44.4743" lon="5.10205">
        <ele>808</ele>
        <time>2022-01-31T18:35:34Z</time>
      </trkpt>
      <trkpt lat="44.47457" lon="5.10189">
        <ele>801</ele>
        <time>2022-01-31T18:36:13Z</time>
      </trkpt>
      <trkpt lat="44.4751" lon="5.10153">
        <ele>786</ele>
        <time>2022-01-31T18:37:31Z</time>
      </trkpt>
      <trkpt lat="44.47545" lon="5.10147">
        <ele>774</ele>
        <time>2022-01-31T18:38:19Z</time>
      </trkpt>
      <trkpt lat="44.47542" lon="5.1014">
        <ele>775</ele>
        <time>2022-01-31T18:38:26Z</time>
      </trkpt>
      <trkpt lat="44.47545" lon="5.10147">
        <ele>774</ele>
        <time>2022-01-31T18:38:34Z</time>
      </trkpt>
      <trkpt lat="44.47561" lon="5.10155">
        <ele>770</ele>
        <time>2022-01-31T18:38:57Z</time>
      </trkpt>
      <trkpt lat="44.47595" lon="5.10184">
        <ele>761</ele>
        <time>2022-01-31T18:39:50Z</time>
      </trkpt>
      <trkpt lat="44.47615" lon="5.10186">
        <ele>762</ele>
        <time>2022-01-31T18:40:17Z</time>
      </trkpt>
      <trkpt lat="44.47654" lon="5.10184">
        <ele>764</ele>
        <time>2022-01-31T18:41:09Z</time>
      </trkpt>
      <trkpt lat="44.47664" lon="5.10186">
        <ele>764</ele>
        <time>2022-01-31T18:41:22Z</time>
      </trkpt>
      <trkpt lat="44.47714" lon="5.10213">
        <ele>766</ele>
        <time>2022-01-31T18:42:34Z</time>
      </trkpt>
      <trkpt lat="44.4773" lon="5.10218">
        <ele>768</ele>
        <time>2022-01-31T18:42:56Z</time>
      </trkpt>
      <trkpt lat="44.47761" lon="5.10219">
        <ele>767</ele>
        <time>2022-01-31T18:43:37Z</time>
      </trkpt>
      <trkpt lat="44.4777" lon="5.10224">
        <ele>766</ele>
        <time>2022-01-31T18:43:50Z</time>
      </trkpt>
      <trkpt lat="44.47787" lon="5.10239">
        <ele>764</ele>
        <time>2022-01-31T18:44:17Z</time>
      </trkpt>
      <trkpt lat="44.47794" lon="5.10248">
        <ele>763</ele>
        <time>2022-01-31T18:44:29Z</time>
      </trkpt>
      <trkpt lat="44.47808" lon="5.10269">
        <ele>762</ele>
        <time>2022-01-31T18:44:57Z</time>
      </trkpt>
      <trkpt lat="44.47835" lon="5.10326">
        <ele>763</ele>
        <time>2022-01-31T18:46:02Z</time>
      </trkpt>
      <trkpt lat="44.4785" lon="5.10344">
        <ele>761</ele>
        <time>2022-01-31T18:46:28Z</time>
      </trkpt>
      <trkpt lat="44.479" lon="5.10379">
        <ele>751</ele>
        <time>2022-01-31T18:47:43Z</time>
      </trkpt>
      <trkpt lat="44.4791" lon="5.10383">
        <ele>749</ele>
        <time>2022-01-31T18:47:57Z</time>
      </trkpt>
      <trkpt lat="44.4792" lon="5.10385">
        <ele>747</ele>
        <time>2022-01-31T18:48:10Z</time>
      </trkpt>
      <trkpt lat="44.4797" lon="5.10387">
        <ele>738</ele>
        <time>2022-01-31T18:49:17Z</time>
      </trkpt>
      <trkpt lat="44.48085" lon="5.10382">
        <ele>723</ele>
        <time>2022-01-31T18:51:50Z</time>
      </trkpt>
      <trkpt lat="44.48125" lon="5.10389">
        <ele>721</ele>
        <time>2022-01-31T18:52:44Z</time>
      </trkpt>
      <trkpt lat="44.48162" lon="5.10379">
        <ele>717</ele>
        <time>2022-01-31T18:53:35Z</time>
      </trkpt>
      <trkpt lat="44.48221" lon="5.10391">
        <ele>709</ele>
        <time>2022-01-31T18:54:54Z</time>
      </trkpt>
      <trkpt lat="44.48326" lon="5.10479">
        <ele>682</ele>
        <time>2022-01-31T18:57:37Z</time>
      </trkpt>
      <trkpt lat="44.4834" lon="5.10498">
        <ele>679</ele>
        <time>2022-01-31T18:58:03Z</time>
      </trkpt>
      <trkpt lat="44.48344" lon="5.10511">
        <ele>676</ele>
        <time>2022-01-31T18:58:17Z</time>
      </trkpt>
      <trkpt lat="44.48349" lon="5.10522">
        <ele>673</ele>
        <time>2022-01-31T18:58:29Z</time>
      </trkpt>
      <trkpt lat="44.48356" lon="5.1053">
        <ele>670</ele>
        <time>2022-01-31T18:58:41Z</time>
      </trkpt>
      <trkpt lat="44.48397" lon="5.10561">
        <ele>661</ele>
        <time>2022-01-31T18:59:43Z</time>
      </trkpt>
      <trkpt lat="44.48453" lon="5.10611">
        <ele>646</ele>
        <time>2022-01-31T19:01:12Z</time>
      </trkpt>
      <trkpt lat="44.48528" lon="5.10671">
        <ele>634</ele>
        <time>2022-01-31T19:03:07Z</time>
      </trkpt>
      <trkpt lat="44.48593" lon="5.10737">
        <ele>625</ele>
        <time>2022-01-31T19:04:54Z</time>
      </trkpt>
      <trkpt lat="44.48602" lon="5.10743">
        <ele>624</ele>
        <time>2022-01-31T19:05:08Z</time>
      </trkpt>
      <trkpt lat="44.48611" lon="5.10748">
        <ele>623</ele>
        <time>2022-01-31T19:05:21Z</time>
      </trkpt>
      <trkpt lat="44.48622" lon="5.10748">
        <ele>621</ele>
        <time>2022-01-31T19:05:35Z</time>
      </trkpt>
      <trkpt lat="44.48694" lon="5.10778">
        <ele>611</ele>
        <time>2022-01-31T19:07:16Z</time>
      </trkpt>
      <trkpt lat="44.48758" lon="5.10811">
        <ele>606</ele>
        <time>2022-01-31T19:08:47Z</time>
      </trkpt>
      <trkpt lat="44.4883" lon="5.10828">
        <ele>595</ele>
        <time>2022-01-31T19:10:24Z</time>
      </trkpt>
      <trkpt lat="44.4884" lon="5.10833">
        <ele>594</ele>
        <time>2022-01-31T19:10:38Z</time>
      </trkpt>
      <trkpt lat="44.48895" lon="5.1085">
        <ele>586</ele>
        <time>2022-01-31T19:11:53Z</time>
      </trkpt>
      <trkpt lat="44.48981" lon="5.10882">
        <ele>576</ele>
        <time>2022-01-31T19:13:52Z</time>
      </trkpt>
      <trkpt lat="44.4903" lon="5.10906">
        <ele>569</ele>
        <time>2022-01-31T19:15:01Z</time>
      </trkpt>
      <trkpt lat="44.49124" lon="5.10967">
        <ele>559</ele>
        <time>2022-01-31T19:17:20Z</time>
      </trkpt>
      <trkpt lat="44.49192" lon="5.11008">
        <ele>547</ele>
        <time>2022-01-31T19:18:58Z</time>
      </trkpt>
      <trkpt lat="44.49236" lon="5.1105">
        <ele>539</ele>
        <time>2022-01-31T19:20:09Z</time>
      </trkpt>
      <trkpt lat="44.49258" lon="5.1108">
        <ele>531</ele>
        <time>2022-01-31T19:20:50Z</time>
      </trkpt>
      <trkpt lat="44.49271" lon="5.111">
        <ele>530</ele>
        <time>2022-01-31T19:21:16Z</time>
      </trkpt>
      <trkpt lat="44.49276" lon="5.11113">
        <ele>529</ele>
        <time>2022-01-31T19:21:30Z</time>
      </trkpt>
      <trkpt lat="44.49278" lon="5.11127">
        <ele>529</ele>
        <time>2022-01-31T19:21:44Z</time>
      </trkpt>
      <trkpt lat="44.49289" lon="5.11148">
        <ele>526</ele>
        <time>2022-01-31T19:22:09Z</time>
      </trkpt>
      <trkpt lat="44.49365" lon="5.11212">
        <ele>513</ele>
        <time>2022-01-31T19:24:07Z</time>
      </trkpt>
      <trkpt lat="44.49372" lon="5.11222">
        <ele>512</ele>
        <time>2022-01-31T19:24:20Z</time>
      </trkpt>
      <trkpt lat="44.49438" lon="5.11301">
        <ele>500</ele>
        <time>2022-01-31T19:26:16Z</time>
      </trkpt>
      <trkpt lat="44.49448" lon="5.11319">
        <ele>499</ele>
        <time>2022-01-31T19:26:38Z</time>
      </trkpt>
      <trkpt lat="44.49456" lon="5.11326">
        <ele>497</ele>
        <time>2022-01-31T19:26:50Z</time>
      </trkpt>
      <trkpt lat="44.49466" lon="5.11331">
        <ele>495</ele>
        <time>2022-01-31T19:27:04Z</time>
      </trkpt>
      <trkpt lat="44.49491" lon="5.11361">
        <ele>489</ele>
        <time>2022-01-31T19:27:48Z</time>
      </trkpt>
      <trkpt lat="44.49508" lon="5.1134">
        <ele>489</ele>
        <time>2022-01-31T19:28:19Z</time>
      </trkpt>
      <trkpt lat="44.49529" lon="5.11322">
        <ele>489</ele>
        <time>2022-01-31T19:28:51Z</time>
      </trkpt>
      <trkpt lat="44.4954" lon="5.11321">
        <ele>488</ele>
        <time>2022-01-31T19:29:06Z</time>
      </trkpt>
      <trkpt lat="44.49579" lon="5.1133">
        <ele>484</ele>
        <time>2022-01-31T19:29:59Z</time>
      </trkpt>
      <trkpt lat="44.49619" lon="5.11346">
        <ele>481</ele>
        <time>2022-01-31T19:30:54Z</time>
      </trkpt>
      <trkpt lat="44.49631" lon="5.11356">
        <ele>481</ele>
        <time>2022-01-31T19:31:13Z</time>
      </trkpt>
      <trkpt lat="44.49639" lon="5.1141">
        <ele>480</ele>
        <time>2022-01-31T19:32:06Z</time>
      </trkpt>
      <trkpt lat="44.49647" lon="5.11456">
        <ele>481</ele>
        <time>2022-01-31T19:32:51Z</time>
      </trkpt>
      <trkpt lat="44.49654" lon="5.11505">
        <ele>483</ele>
        <time>2022-01-31T19:33:38Z</time>
      </trkpt>
      <trkpt lat="44.49644" lon="5.11508">
        <ele>483</ele>
        <time>2022-01-31T19:33:52Z</time>
      </trkpt>
    </trkseg>
  </trk>
</gpx>